createdAt,value
2018-07-24T00:00:59.363Z,38.30
2018-07-24T00:03:33.521Z,38.00
2018-07-24T00:06:06.664Z,38.20
2018-07-24T00:08:40.371Z,38.40
2018-07-24T00:11:14.124Z,39.60
2018-07-24T00:13:48.414Z,37.40
2018-07-24T00:16:21.769Z,38.40
2018-07-24T00:18:55.977Z,37.50
2018-07-24T00:21:30.402Z,36.20
2018-07-24T00:24:05.245Z,38.60
2018-07-24T00:26:39.140Z,38.20
2018-07-24T00:29:13.356Z,38.20
2018-07-24T00:31:46.990Z,39.70
2018-07-24T00:34:20.317Z,39.10
2018-07-24T00:36:53.965Z,39.80
2018-07-24T00:39:27.826Z,38.80
2018-07-24T00:42:01.128Z,38.60
2018-07-24T00:44:34.430Z,38.60
2018-07-24T00:47:08.346Z,39.30
2018-07-24T00:49:42.264Z,39.90
2018-07-24T00:52:15.340Z,39.60
2018-07-24T00:54:48.783Z,39.60
2018-07-24T00:57:21.896Z,39.40
2018-07-24T00:59:55.147Z,38.50
2018-07-24T01:02:28.349Z,39.00
2018-07-24T01:05:01.505Z,39.10
2018-07-24T01:07:37.668Z,40.00
2018-07-24T01:10:13.322Z,39.60
2018-07-24T01:12:46.485Z,37.90
2018-07-24T01:15:20.341Z,39.00
2018-07-24T01:17:53.505Z,37.60
2018-07-24T01:20:26.609Z,38.30
2018-07-24T01:23:06.988Z,37.40
2018-07-24T01:25:41.228Z,38.50
2018-07-24T01:28:14.468Z,37.70
2018-07-24T01:30:49.670Z,38.00
2018-07-24T01:33:22.867Z,38.00
2018-07-24T01:35:56.217Z,38.80
2018-07-24T01:38:29.895Z,39.70
2018-07-24T01:41:03.944Z,38.10
2018-07-24T01:43:37.396Z,37.90
2018-07-24T01:46:11.707Z,38.30
2018-07-24T01:48:45.825Z,37.60
2018-07-24T01:51:19.450Z,38.20
2018-07-24T01:53:52.856Z,36.70
2018-07-24T01:56:26.036Z,36.80
2018-07-24T01:59:00.729Z,36.30
2018-07-24T02:01:34.119Z,36.70
2018-07-24T02:04:07.497Z,37.20
2018-07-24T02:06:40.665Z,38.00
2018-07-24T02:09:14.000Z,37.30
2018-07-24T02:11:47.308Z,37.60
2018-07-24T02:14:20.503Z,39.60
2018-07-24T02:16:53.554Z,39.40
2018-07-24T02:19:27.305Z,40.50
2018-07-24T02:22:00.502Z,40.10
2018-07-24T02:24:33.669Z,40.40
2018-07-24T02:27:08.348Z,41.40
2018-07-24T02:29:41.665Z,42.90
2018-07-24T02:32:15.938Z,43.70
2018-07-24T02:34:48.975Z,46.50
2018-07-24T02:37:21.977Z,46.50
2018-07-24T02:39:55.212Z,46.10
2018-07-24T02:42:28.259Z,47.00
2018-07-24T02:45:01.479Z,46.60
2018-07-24T02:47:34.618Z,47.50
2018-07-24T02:50:09.422Z,46.70
2018-07-24T02:52:42.670Z,46.00
2018-07-24T02:55:15.627Z,45.40
2018-07-24T02:57:48.783Z,45.50
2018-07-24T03:00:21.851Z,46.40
2018-07-24T03:02:55.131Z,45.70
2018-07-24T03:05:29.180Z,45.70
2018-07-24T03:08:02.627Z,46.50
2018-07-24T03:10:35.844Z,47.20
2018-07-24T03:13:09.907Z,47.30
2018-07-24T03:15:43.067Z,47.80
2018-07-24T03:18:16.290Z,48.40
2018-07-24T03:20:49.404Z,49.50
2018-07-24T03:23:22.646Z,49.60
2018-07-24T03:25:55.814Z,52.90
2018-07-24T03:28:29.030Z,52.20
2018-07-24T03:31:03.383Z,51.80
2018-07-24T03:33:36.976Z,52.10
2018-07-24T03:36:10.680Z,52.10
2018-07-24T03:38:43.538Z,53.30
2018-07-24T03:43:48.466Z,54.10
2018-07-24T03:46:23.608Z,55.00
2018-07-24T03:48:58.329Z,56.70
2018-07-24T03:51:32.296Z,55.90
2018-07-24T03:54:06.171Z,56.70
2018-07-24T03:56:39.756Z,55.80
2018-07-24T03:59:13.020Z,56.40
2018-07-24T04:01:45.838Z,56.50
2018-07-24T04:04:19.433Z,56.90
2018-07-24T04:06:52.520Z,57.60
2018-07-24T04:09:28.388Z,58.00
2018-07-24T04:12:01.809Z,57.90
2018-07-24T04:14:35.952Z,59.20
2018-07-24T04:17:08.871Z,59.40
2018-07-24T04:19:41.884Z,61.10
2018-07-24T04:22:14.797Z,60.40
2018-07-24T04:24:49.393Z,61.10
2018-07-24T04:27:22.326Z,61.30
2018-07-24T04:29:55.221Z,62.20
2018-07-24T04:32:28.088Z,62.70
2018-07-24T04:35:00.921Z,63.50
2018-07-24T04:37:34.387Z,63.90
2018-07-24T04:40:07.820Z,65.10
2018-07-24T04:42:41.107Z,67.20
2018-07-24T04:45:14.220Z,67.80
2018-07-24T04:47:47.519Z,69.70
2018-07-24T04:50:20.809Z,68.90
2018-07-24T04:52:55.644Z,70.00
2018-07-24T04:55:30.118Z,70.70
2018-07-24T04:58:03.001Z,72.00
2018-07-24T05:00:36.578Z,73.40
2018-07-24T05:03:09.414Z,74.10
2018-07-24T05:05:42.262Z,75.20
2018-07-24T05:08:15.501Z,76.10
2018-07-24T05:10:48.305Z,76.50
2018-07-24T05:13:22.041Z,78.50
2018-07-24T05:15:54.871Z,77.80
2018-07-24T05:18:28.955Z,77.50
2018-07-24T05:21:02.120Z,77.30
2018-07-24T05:23:35.320Z,78.40
2018-07-24T05:26:08.513Z,78.10
2018-07-24T05:28:41.922Z,79.10
2018-07-24T05:31:15.105Z,79.60
2018-07-24T05:33:48.495Z,79.80
2018-07-24T05:36:22.611Z,80.20
2018-07-24T05:38:55.815Z,81.00
2018-07-24T05:41:29.205Z,80.90
2018-07-24T05:44:09.004Z,81.30
2018-07-24T05:46:42.423Z,82.60
2018-07-24T05:49:17.262Z,81.90
2018-07-24T05:51:50.624Z,82.20
2018-07-24T05:54:23.628Z,82.90
2018-07-24T05:56:56.866Z,83.20
2018-07-24T05:59:30.084Z,83.50
2018-07-24T06:02:03.353Z,83.10
2018-07-24T06:04:36.606Z,83.80
2018-07-24T06:07:09.814Z,84.90
2018-07-24T06:09:42.934Z,85.20
2018-07-24T06:12:16.233Z,86.50
2018-07-24T06:14:49.490Z,86.00
2018-07-24T06:17:22.620Z,86.30
2018-07-24T06:19:56.129Z,86.00
2018-07-24T06:22:29.339Z,86.80
2018-07-24T06:25:02.716Z,87.20
2018-07-24T06:27:35.886Z,86.90
2018-07-24T06:30:10.300Z,88.80
2018-07-24T06:32:43.853Z,86.70
2018-07-24T06:35:17.401Z,88.20
2018-07-24T06:37:50.455Z,87.10
2018-07-24T06:40:23.554Z,87.70
2018-07-24T06:42:56.677Z,88.30
2018-07-24T06:45:29.885Z,88.40
2018-07-24T06:48:02.972Z,88.80
2018-07-24T06:50:36.201Z,88.40
2018-07-24T06:53:10.036Z,89.50
2018-07-24T06:55:43.434Z,90.10
2018-07-24T06:58:16.856Z,90.10
2018-07-24T07:00:50.257Z,90.20
2018-07-24T07:03:23.329Z,89.80
2018-07-24T07:05:56.649Z,90.10
2018-07-24T07:08:29.842Z,89.80
2018-07-24T07:11:03.139Z,90.00
2018-07-24T07:13:36.693Z,90.20
2018-07-24T07:16:09.795Z,89.60
2018-07-24T07:18:43.488Z,90.60
2018-07-24T07:21:16.778Z,90.80
2018-07-24T07:23:50.095Z,90.60
2018-07-24T07:26:23.306Z,91.00
2018-07-24T07:28:57.322Z,91.30
2018-07-24T07:31:30.577Z,91.10
2018-07-24T07:34:03.900Z,91.10
2018-07-24T07:36:37.105Z,91.90
2018-07-24T07:39:12.595Z,92.10
2018-07-24T07:41:45.684Z,91.80
2018-07-24T07:44:18.883Z,92.10
2018-07-24T14:35:32.267Z,99.90
2018-07-24T14:38:06.942Z,99.90
2018-07-24T14:40:40.334Z,99.90
2018-07-24T14:43:13.231Z,99.90
2018-07-24T14:45:46.993Z,99.90
2018-07-24T14:48:22.445Z,99.90
2018-07-24T14:50:55.347Z,99.90
2018-07-24T14:53:28.197Z,99.90
2018-07-24T14:56:01.135Z,99.90
2018-07-24T14:58:34.957Z,99.60
2018-07-24T15:01:07.826Z,98.00
2018-07-24T15:03:40.664Z,96.40
2018-07-24T15:06:13.548Z,95.80
2018-07-24T15:08:48.388Z,94.50
2018-07-24T15:11:21.238Z,94.20
2018-07-24T15:13:55.910Z,94.00
2018-07-24T15:16:29.134Z,94.00
2018-07-24T15:19:01.996Z,93.60
2018-07-24T15:21:34.792Z,93.90
2018-07-24T15:24:07.628Z,93.70
2018-07-24T15:26:40.909Z,93.80
2018-07-24T15:29:13.870Z,93.60
2018-07-24T15:31:46.776Z,93.80
2018-07-24T15:34:21.811Z,93.40
2018-07-24T15:36:54.892Z,93.80
2018-07-24T15:39:27.847Z,95.00
2018-07-24T15:42:00.757Z,94.60
2018-07-24T15:44:33.699Z,95.10
2018-07-24T15:47:06.700Z,95.60
2018-07-24T15:49:39.592Z,94.40
2018-07-24T15:52:13.075Z,95.00
2018-07-24T15:54:45.930Z,95.60
2018-07-24T15:57:18.948Z,94.50
2018-07-24T15:59:51.848Z,93.40
2018-07-24T16:02:24.782Z,94.30
2018-07-24T16:04:57.761Z,93.60
2018-07-24T16:07:31.656Z,93.70
2018-07-24T16:10:05.260Z,93.40
2018-07-24T16:12:39.134Z,92.70
2018-07-24T16:15:13.183Z,92.80
2018-07-24T16:17:48.198Z,92.60
2018-07-24T16:20:21.060Z,93.50
2018-07-24T16:22:53.951Z,92.80
2018-07-24T16:25:26.834Z,94.40
2018-07-24T16:28:00.709Z,93.50
2018-07-24T16:30:33.618Z,94.20
2018-07-24T16:33:06.540Z,95.00
2018-07-24T16:35:39.399Z,93.80
2018-07-24T16:38:12.258Z,94.20
2018-07-24T16:40:46.702Z,93.90
2018-07-24T16:43:19.629Z,94.80
2018-07-24T16:45:53.291Z,95.00
2018-07-24T16:48:28.045Z,93.40
2018-07-24T16:51:01.026Z,93.90
2018-07-24T16:53:33.966Z,93.70
2018-07-24T16:56:09.831Z,92.80
2018-07-24T16:58:42.638Z,92.80
2018-07-24T17:01:15.630Z,93.10
2018-07-24T17:03:48.523Z,91.90
2018-07-24T17:06:21.327Z,91.80
2018-07-24T17:08:54.342Z,91.40
2018-07-24T17:11:27.214Z,92.00
2018-07-24T17:14:00.126Z,93.00
2018-07-24T17:16:33.025Z,92.50
2018-07-24T17:19:07.994Z,92.80
2018-07-24T17:21:40.857Z,92.40
2018-07-24T17:24:13.661Z,92.30
2018-07-24T17:26:46.455Z,92.10
2018-07-24T17:29:19.334Z,92.30
2018-07-24T17:31:52.271Z,91.30
2018-07-24T17:34:25.207Z,91.70
2018-07-24T17:36:59.073Z,91.30
2018-07-24T17:39:32.771Z,90.50
2018-07-24T17:42:06.367Z,91.00
2018-07-24T17:44:39.235Z,90.00
2018-07-24T17:47:12.292Z,90.50
2018-07-24T17:49:46.086Z,89.00
2018-07-24T17:52:19.937Z,89.00
2018-07-24T17:54:52.846Z,87.80
2018-07-24T17:57:25.693Z,87.60
2018-07-24T17:59:58.577Z,87.40
2018-07-24T18:02:31.467Z,86.20
2018-07-24T18:05:04.406Z,87.30
2018-07-24T18:07:38.261Z,88.00
2018-07-24T18:10:11.150Z,86.40
2018-07-24T18:12:43.983Z,85.40
2018-07-24T18:15:17.277Z,85.80
2018-07-24T18:17:50.085Z,85.40
2018-07-24T18:20:22.885Z,85.30
2018-07-24T18:22:56.525Z,84.90
2018-07-24T18:25:29.357Z,88.20
2018-07-24T18:28:02.225Z,86.00
2018-07-24T18:30:35.109Z,84.60
2018-07-24T18:33:08.058Z,84.80
2018-07-24T18:35:40.965Z,86.00
2018-07-24T18:38:13.838Z,84.50
2018-07-24T18:40:46.712Z,83.50
2018-07-24T18:43:19.549Z,82.80
2018-07-24T18:45:52.381Z,82.90
2018-07-24T18:48:25.242Z,81.00
2018-07-24T18:50:58.062Z,81.60
2018-07-24T18:53:31.960Z,82.20
2018-07-24T18:56:04.963Z,79.70
2018-07-24T18:58:37.891Z,80.70
2018-07-24T19:01:11.128Z,81.00
2018-07-24T19:03:44.764Z,80.30
2018-07-24T19:06:17.630Z,82.20
2018-07-24T19:08:50.918Z,79.40
2018-07-24T19:11:23.914Z,78.40
2018-07-24T19:13:56.824Z,78.40
2018-07-24T19:16:29.718Z,79.70
2018-07-24T19:19:15.132Z,78.70
2018-07-24T19:21:47.973Z,77.10
2018-07-24T19:24:20.798Z,76.30
2018-07-24T19:26:54.752Z,78.80
2018-07-24T19:29:29.246Z,75.40
2018-07-24T19:32:02.922Z,75.20
2018-07-24T19:34:35.701Z,75.00
2018-07-24T19:37:08.523Z,75.80
2018-07-24T19:39:42.825Z,74.40
2018-07-24T19:42:15.743Z,74.20
2018-07-24T19:44:48.540Z,74.30
2018-07-24T19:47:21.505Z,75.00
2018-07-24T19:49:54.340Z,75.00
2018-07-24T19:52:27.575Z,74.70
2018-07-24T19:55:01.350Z,73.00
2018-07-24T19:57:35.250Z,71.90
2018-07-24T20:00:10.690Z,70.20
2018-07-24T20:02:43.531Z,72.90
2018-07-24T20:05:16.378Z,71.10
2018-07-24T20:07:50.469Z,70.70
2018-07-24T20:10:24.207Z,70.60
2018-07-24T20:12:57.222Z,69.10
2018-07-24T20:15:30.083Z,69.10
2018-07-24T20:18:03.743Z,68.20
2018-07-24T20:20:36.627Z,67.90
2018-07-24T20:23:09.521Z,68.90
2018-07-24T20:25:42.485Z,67.90
2018-07-24T20:28:15.321Z,66.10
2018-07-24T20:30:48.219Z,66.80
2018-07-24T20:33:21.100Z,66.30
2018-07-24T20:35:53.887Z,65.70
2018-07-24T20:38:26.764Z,66.40
2018-07-24T20:40:59.569Z,64.40
2018-07-24T20:43:32.481Z,65.60
2018-07-24T20:46:05.368Z,61.90
2018-07-24T20:48:38.214Z,63.20
2018-07-24T20:51:12.294Z,62.70
2018-07-24T20:53:45.237Z,63.20
2018-07-24T20:56:18.146Z,63.50
2018-07-24T21:05:37.836Z,64.80
2018-07-24T21:08:10.826Z,64.10
2018-07-24T21:10:43.753Z,57.90
2018-07-24T21:13:16.630Z,51.10
2018-07-24T21:15:49.443Z,52.10
2018-07-24T21:18:23.540Z,53.70
2018-07-24T21:20:56.504Z,52.00
2018-07-24T21:23:30.377Z,52.70
2018-07-24T21:26:03.676Z,52.50
2018-07-24T21:28:36.496Z,53.20
2018-07-24T21:31:09.506Z,53.80
2018-07-24T21:33:42.320Z,52.70
2018-07-24T21:36:15.150Z,57.10
2018-07-24T21:38:48.030Z,56.70
2018-07-24T21:41:20.847Z,57.80
2018-07-24T21:43:53.703Z,53.80
2018-07-24T21:46:26.514Z,55.60
2018-07-24T21:49:00.384Z,54.30
2018-07-24T21:51:33.322Z,52.10
2018-07-24T21:54:07.197Z,52.70
2018-07-24T21:56:44.800Z,53.20
2018-07-24T21:59:19.147Z,55.10
2018-07-24T22:01:57.555Z,55.30
2018-07-24T22:04:30.923Z,54.40
2018-07-24T22:07:04.737Z,52.20
2018-07-24T22:09:39.160Z,52.60
2018-07-24T22:12:14.574Z,53.80
2018-07-24T22:14:49.160Z,52.20
2018-07-24T22:17:22.557Z,52.80
2018-07-24T22:19:56.932Z,53.70
2018-07-24T22:22:30.030Z,51.50
2018-07-24T22:25:03.974Z,52.40
2018-07-24T22:27:41.060Z,50.30
2018-07-24T22:30:15.237Z,50.80
2018-07-24T22:32:48.490Z,51.60
2018-07-24T22:35:22.566Z,50.90
2018-07-24T22:37:55.978Z,52.90
2018-07-24T22:40:29.650Z,49.70
2018-07-24T22:43:02.488Z,50.00
2018-07-24T22:45:36.404Z,49.90
2018-07-24T22:48:09.843Z,49.40
2018-07-24T22:50:42.691Z,48.70
2018-07-24T22:53:16.480Z,51.10
2018-07-24T22:55:50.973Z,48.10
2018-07-24T22:58:23.837Z,47.40
2018-07-24T23:00:57.952Z,51.00
2018-07-24T23:03:32.420Z,47.40
2018-07-24T23:06:11.511Z,46.90
2018-07-24T23:08:44.396Z,48.10
2018-07-24T23:11:19.269Z,48.60
2018-07-24T23:13:52.129Z,46.30
2018-07-24T23:16:25.488Z,45.80
2018-07-24T23:18:58.363Z,45.50
2018-07-24T23:21:33.088Z,45.80
2018-07-24T23:24:06.711Z,45.80
2018-07-24T23:26:42.102Z,46.40
2018-07-24T23:29:15.540Z,44.00
2018-07-24T23:31:48.986Z,41.20
2018-07-24T23:34:25.592Z,43.20
2018-07-24T23:36:58.995Z,42.30
2018-07-24T23:39:32.048Z,43.20
2018-07-24T23:42:05.608Z,43.10
2018-07-24T23:44:38.673Z,40.50
2018-07-24T23:47:12.639Z,40.00
2018-07-24T23:49:46.705Z,38.50
2018-07-24T23:52:20.135Z,37.40
2018-07-24T23:54:56.038Z,34.60
2018-07-24T23:57:29.239Z,35.80
